Drayton Plns, Michigan
Current Conditions -  °F | °C
As of 12:53 AM on Friday 28 Nov 2014 (Local Time) from KPTK Reporting Station
Overcast Overcast  
Wind Chill:   Ceiling: 3500
Heat Index: 20°   Visibility: 10mi
Dew Point:   Wind: 14mph
Humidity: 55%   Direction: 320°NW
Pressure: 30.27"   Gusts: NA
Location:  42.6842°N, 83.3775°W
Report Text: KPTK 280553Z AUTO 32012KT 10SM OVC035 M07/M14 A3027 RMK AO2 SNE07 SLP265 P0000 60000 T10671144 11033 21067 50003
Loading
Personal Weather Stations






























Interactive Weather Map New forecast layout! Learn more

10-Day Weather Forecast

Advertisements
Track Severe Weather on mobile